Time;durP1;ratioP1;P1;durP2;ratioP2;P2;SDS_P1;SDS_P2;PMS_P1;PMS_P2;Temp;Humidity;BMP_temperature;BMP_pressure;BME280_temperature;BME280_humidity;BME280_pressure;Samples;Min_cycle;Max_cycle;Signal;HPM_P1;HPM_P2
2021/12/08 00:00:47;;;;;;;11.00;2.97;;;;;;;6.62;81.41;97492.13;5052857;28;20399;-49
2021/12/08 00:03:14;;;;;;;7.70;2.22;;;;;;;6.73;81.74;97481.88;5052902;28;20032;-49
2021/12/08 00:05:43;;;;;;;6.32;1.70;;;;;;;6.79;81.16;97447.16;5052764;28;20021;-48
2021/12/08 00:08:11;;;;;;;4.55;2.28;;;;;;;6.78;81.25;97452.56;5034829;28;20518;-49
2021/12/08 00:13:29;;;;;;;2.65;1.17;;;;;;;6.67;81.54;97445.41;5052730;28;20090;-49
2021/12/08 00:15:58;;;;;;;6.05;1.42;;;;;;;6.75;81.38;97443.38;5052520;28;20033;-49
2021/12/08 00:18:27;;;;;;;1.83;0.93;;;;;;;6.67;80.52;97437.59;5052623;28;20564;-47
2021/12/08 00:20:57;;;;;;;1.73;0.93;;;;;;;6.57;80.70;97457.06;5034515;28;20529;-49
2021/12/08 00:23:24;;;;;;;2.20;1.13;;;;;;;6.51;80.72;97439.63;5052526;28;20063;-49
2021/12/08 00:25:50;;;;;;;3.42;1.67;;;;;;;6.63;81.45;97439.00;5052404;28;20024;-49
2021/12/08 00:28:17;;;;;;;2.53;1.38;;;;;;;6.69;81.51;97446.81;5052579;28;20035;-48
2021/12/08 00:30:46;;;;;;;3.80;1.25;;;;;;;6.66;81.33;97434.19;5052359;28;20095;-49
2021/12/08 00:33:13;;;;;;;5.00;1.48;;;;;;;6.75;81.38;97426.94;5052287;28;20025;-49
2021/12/08 00:35:40;;;;;;;6.65;1.50;;;;;;;6.73;81.48;97413.31;5051403;28;20112;-49
2021/12/08 00:38:07;;;;;;;4.88;1.45;;;;;;;6.76;81.60;97416.31;5050967;28;20406;-49
2021/12/08 00:40:35;;;;;;;3.15;1.20;;;;;;;6.80;82.38;97404.44;5034218;28;20033;-49
2021/12/08 00:43:01;;;;;;;5.47;1.85;;;;;;;6.83;81.76;97405.84;5052133;28;20488;-49
2021/12/08 00:45:29;;;;;;;4.15;1.48;;;;;;;6.79;82.27;97400.22;5052124;28;20021;-49
2021/12/08 00:47:56;;;;;;;2.92;1.10;;;;;;;6.76;82.01;97403.25;5051977;28;20040;-49
2021/12/08 00:50:27;;;;;;;4.97;1.00;;;;;;;6.89;83.20;97391.16;5052002;28;20498;-49
2021/12/08 00:52:54;;;;;;;3.28;1.02;;;;;;;6.97;82.07;97396.94;5033778;28;20556;-49
2021/12/08 00:55:21;;;;;;;7.25;4.68;;;;;;;6.98;82.40;97406.38;5051941;28;20056;-49
2021/12/08 00:57:47;;;;;;;2.20;1.08;;;;;;;6.96;82.67;97392.75;5051931;28;20025;-48
2021/12/08 01:00:51;;;;;;;1.70;0.98;;;;;;;7.12;82.52;97401.88;5051954;28;20025;-49
2021/12/08 01:03:17;;;;;;;2.85;0.93;;;;;;;7.16;81.88;97404.84;5018067;28;20556;-49
2021/12/08 01:05:55;;;;;;;2.50;1.02;;;;;;;7.11;81.97;97405.50;5051880;28;20055;-49
2021/12/08 01:08:24;;;;;;;6.40;4.50;;;;;;;7.01;81.84;97399.94;5033931;28;20102;-49
2021/12/08 01:10:52;;;;;;;532.85;473.42;;;;;;;7.06;82.13;97402.69;5033828;28;20033;-49
2021/12/08 01:13:20;;;;;;;223.88;172.68;;;;;;;7.09;81.34;97404.09;5033794;28;20087;-48
2021/12/08 01:15:50;;;;;;;349.42;251.65;;;;;;;7.09;80.98;97415.34;5051640;28;20032;-49
2021/12/08 01:18:18;;;;;;;927.90;645.60;;;;;;;7.14;81.87;97409.47;5033768;28;20025;-49
2021/12/08 01:20:45;;;;;;;164.13;122.30;;;;;;;7.16;81.39;97410.06;5051584;28;20025;-50
2021/12/08 01:23:12;;;;;;;25.60;17.80;;;;;;;7.22;82.47;97411.03;5051905;28;20028;-50
2021/12/08 01:25:38;;;;;;;461.60;411.65;;;;;;;7.24;81.49;97414.25;5051593;28;20033;-50
2021/12/08 01:28:04;;;;;;;307.40;238.95;;;;;;;7.19;81.68;97396.63;5051525;28;20032;-50
2021/12/08 01:30:31;;;;;;;24.92;20.88;;;;;;;7.18;81.82;97397.63;5051520;28;20025;-49
2021/12/08 01:32:57;;;;;;;10.32;5.75;;;;;;;7.21;81.86;97399.81;5051584;28;20522;-49
2021/12/08 01:35:25;;;;;;;12.43;4.78;;;;;;;7.23;82.71;97382.13;5051514;28;20555;-50
2021/12/08 01:37:51;;;;;;;5.20;3.15;;;;;;;7.21;82.75;97384.16;5051247;28;20045;-48
2021/12/08 01:40:17;;;;;;;3.35;1.80;;;;;;;7.22;82.05;97387.56;5051445;28;20449;-49
2021/12/08 01:42:47;;;;;;;4.85;1.58;;;;;;;7.27;82.73;97391.16;5033553;28;20117;-49
2021/12/08 01:48:03;;;;;;;29.77;14.43;;;;;;;7.31;82.71;97389.72;5051409;28;20032;-50
2021/12/08 01:50:31;;;;;;;14.65;10.60;;;;;;;7.28;82.54;97384.91;5051375;28;20029;-49
2021/12/08 01:52:56;;;;;;;4.57;1.95;;;;;;;7.26;82.91;97389.53;5051369;28;20021;-49
2021/12/08 01:55:22;;;;;;;21.08;14.82;;;;;;;7.26;82.33;97397.34;5051264;28;20031;-49
2021/12/08 01:57:49;;;;;;;5.63;1.60;;;;;;;7.34;82.59;97389.28;5051337;28;20391;-48
2021/12/08 02:00:26;;;;;;;4.53;1.25;;;;;;;7.38;82.92;97392.25;5051269;28;20025;-49
2021/12/08 02:02:52;;;;;;;4.80;1.40;;;;;;;7.40;82.69;97388.47;5051338;28;20062;-49
2021/12/08 02:05:18;;;;;;;4.68;1.17;;;;;;;7.47;82.78;97385.78;5052984;28;20439;-49
2021/12/08 02:07:44;;;;;;;4.15;1.13;;;;;;;7.50;82.41;97366.28;5054962;28;20025;-49
2021/12/08 02:10:12;;;;;;;3.25;1.40;;;;;;;7.50;82.15;97364.47;5054986;28;20047;-49
2021/12/08 02:12:40;;;;;;;8.93;2.35;;;;;;;7.56;83.27;97355.00;5054971;28;20025;-50
2021/12/08 02:15:10;;;;;;;7.03;2.17;;;;;;;7.67;83.17;97351.69;5054908;28;20021;-49
2021/12/08 02:17:37;;;;;;;4.97;1.83;;;;;;;7.84;83.67;97357.16;5036905;28;20470;-50
2021/12/08 02:20:09;;;;;;;7.30;1.75;;;;;;;7.84;82.53;97345.91;5054836;28;20013;-49
2021/12/08 02:22:35;;;;;;;6.72;1.90;;;;;;;7.69;82.29;97343.66;5054684;28;20529;-49
2021/12/08 02:25:01;;;;;;;10.27;2.50;;;;;;;7.96;84.11;97336.34;5036779;28;20053;-50
2021/12/08 02:27:27;;;;;;;2.08;1.08;;;;;;;7.86;81.70;97331.63;5054570;28;20029;-50
2021/12/08 02:29:59;;;;;;;7.40;2.05;;;;;;;8.00;83.10;97340.91;5054656;28;20079;-50
2021/12/08 02:48:57;;;;;;;6.28;3.17;;;;;;;8.20;83.32;97345.13;5054311;28;20086;-50
2021/12/08 02:51:23;;;;;;;4.22;0.93;;;;;;;8.39;83.43;97331.06;5054255;28;20028;-50
2021/12/08 02:53:49;;;;;;;8.80;3.00;;;;;;;8.24;83.02;97324.59;5036300;28;20490;-50
2021/12/08 02:56:17;;;;;;;8.38;2.33;;;;;;;8.14;82.96;97328.50;5054074;28;20033;-49
2021/12/08 02:58:43;;;;;;;12.27;3.47;;;;;;;8.20;83.25;97332.06;5054053;28;20568;-49
2021/12/08 03:01:11;;;;;;;11.07;3.45;;;;;;;8.50;84.09;97329.53;5054035;28;20518;-49
2021/12/08 03:03:38;;;;;;;1.75;0.90;;;;;;;8.55;83.11;97326.25;5054044;28;20021;-50
2021/12/08 03:06:05;;;;;;;5.05;1.85;;;;;;;8.31;82.64;97320.91;5035968;28;20086;-50
2021/12/08 03:08:31;;;;;;;2.90;1.10;;;;;;;8.24;82.65;97329.81;5053801;28;20368;-49
2021/12/08 03:10:57;;;;;;;3.55;1.80;;;;;;;8.09;81.96;97323.16;5035944;28;20028;-49
2021/12/08 03:13:35;;;;;;;7.10;2.30;;;;;;;8.07;82.94;97319.97;5053798;28;20398;-49
2021/12/08 03:16:01;;;;;;;7.38;2.53;;;;;;;8.12;82.93;97308.84;5053595;28;20498;-49
2021/12/08 03:18:36;;;;;;;2.95;1.05;;;;;;;8.14;82.98;97302.38;5053765;28;20029;-49
2021/12/08 03:21:06;;;;;;;4.78;2.00;;;;;;;8.35;83.80;97303.75;5035882;28;20025;-49
2021/12/08 03:23:44;;;;;;;11.45;3.08;;;;;;;8.37;83.15;97303.50;5035743;28;20481;-50
2021/12/08 03:26:10;;;;;;;9.35;4.03;;;;;;;8.34;82.93;97302.16;5053657;28;20025;-50
2021/12/08 03:28:42;;;;;;;5.30;3.17;;;;;;;8.34;82.88;97296.13;5053480;28;20025;-49
2021/12/08 03:31:14;;;;;;;18.77;4.50;;;;;;;8.18;82.48;97285.25;5053852;28;20021;-50
2021/12/08 03:33:41;;;;;;;16.35;4.88;;;;;;;8.08;82.70;97279.72;5053811;28;20037;-49
2021/12/08 03:36:08;;;;;;;5.97;2.67;;;;;;;8.03;82.65;97274.38;5053197;28;20411;-49
2021/12/08 03:38:34;;;;;;;7.13;3.70;;;;;;;7.95;82.97;97272.06;5053409;28;20491;-50
2021/12/08 03:41:03;;;;;;;9.60;3.60;;;;;;;7.91;83.11;97283.97;5053291;28;20025;-51
2021/12/08 03:43:30;;;;;;;58.38;7.25;;;;;;;7.96;83.45;97291.94;5053277;28;20114;-50
2021/12/08 03:45:58;;;;;;;15.30;5.32;;;;;;;7.86;82.87;97281.97;5053252;28;20058;-50
2021/12/08 03:48:29;;;;;;;35.90;7.03;;;;;;;7.81;83.87;97274.03;5053123;28;20025;-50
2021/12/08 03:50:56;;;;;;;16.45;7.82;;;;;;;7.79;84.12;97276.06;5053174;28;20025;-50
2021/12/08 03:53:22;;;;;;;12.60;6.90;;;;;;;7.84;83.83;97278.00;5053357;28;20083;-51
2021/12/08 03:55:52;;;;;;;20.90;5.40;;;;;;;7.87;84.05;97267.94;5052985;28;20108;-50
2021/12/08 03:58:18;;;;;;;21.85;6.55;;;;;;;7.93;84.37;97258.44;5052930;28;20029;-49
2021/12/08 04:00:45;;;;;;;9.35;5.60;;;;;;;7.90;84.03;97261.47;5052936;28;20373;-49
2021/12/08 04:03:12;;;;;;;71.53;10.40;;;;;;;7.80;83.28;97262.75;5052844;28;20025;-50
2021/12/08 04:05:46;;;;;;;274.75;18.02;;;;;;;7.73;83.76;97259.44;5052811;28;20021;-49
2021/12/08 04:08:28;;;;;;;10.10;4.95;;;;;;;7.69;83.70;97255.66;5052789;28;20033;-49
2021/12/08 04:10:54;;;;;;;8.75;4.88;;;;;;;7.57;83.50;97239.13;5052786;28;20082;-50
2021/12/08 04:13:28;;;;;;;5.65;4.00;;;;;;;7.33;83.27;97238.16;5052698;28;20021;-49
2021/12/08 04:15:54;;;;;;;7.57;3.83;;;;;;;7.28;83.98;97236.16;5052660;28;20124;-49
2021/12/08 04:18:22;;;;;;;23.40;13.05;;;;;;;7.33;84.02;97246.75;5052565;28;20093;-49
2021/12/08 04:20:54;;;;;;;7.20;3.20;;;;;;;7.36;84.28;97240.31;5052558;28;20024;-49
2021/12/08 04:23:23;;;;;;;5.97;2.55;;;;;;;7.56;84.66;97245.34;5052513;28;20078;-49
2021/12/08 04:25:54;;;;;;;6.72;3.95;;;;;;;7.62;84.05;97244.47;5052466;28;20407;-50
2021/12/08 04:28:28;;;;;;;8.80;4.47;;;;;;;7.56;84.28;97220.03;5051692;28;20040;-49
2021/12/08 04:31:08;;;;;;;4.10;2.22;;;;;;;7.55;83.93;97207.22;5052379;28;20025;-49
2021/12/08 04:33:35;;;;;;;4.82;1.73;;;;;;;7.46;83.78;97214.50;5052385;28;20108;-50
2021/12/08 04:36:06;;;;;;;4.63;2.40;;;;;;;7.42;84.01;97233.44;5051981;28;20013;-50
2021/12/08 04:38:41;;;;;;;16.13;2.75;;;;;;;7.40;84.54;97234.47;5052275;28;20033;-50
2021/12/08 04:41:13;;;;;;;19.52;4.13;;;;;;;7.45;85.08;97225.19;5052249;28;20410;-50
2021/12/08 04:44:01;;;;;;;10.32;4.07;;;;;;;7.53;84.83;97224.91;5052158;28;20025;-49
2021/12/08 04:49:52;;;;;;;6.40;2.05;;;;;;;7.57;84.29;97213.00;5052071;28;20052;-50
2021/12/08 04:52:19;;;;;;;16.75;2.75;;;;;;;7.65;85.15;97207.50;5051698;28;20029;-50
2021/12/08 05:03:42;;;;;;;5.97;1.00;;;;;;;7.33;84.39;97199.00;5051932;28;20143;-50
2021/12/08 05:06:23;;;;;;;1.73;0.88;;;;;;;7.19;84.14;97173.03;5051839;28;20021;-50
2021/12/08 05:08:55;;;;;;;2.33;1.15;;;;;;;7.27;85.44;97179.78;5051791;28;20044;-50
2021/12/08 05:11:32;;;;;;;340.67;283.08;;;;;;;7.37;84.84;97195.75;5051769;28;20029;-50
2021/12/08 05:14:04;;;;;;;18.77;14.23;;;;;;;7.42;84.93;97208.13;5033917;28;20033;-50
2021/12/08 05:16:31;;;;;;;3.05;2.10;;;;;;;7.41;84.48;97211.75;5033864;28;20037;-50
2021/12/08 05:18:59;;;;;;;9.45;2.63;;;;;;;7.55;85.43;97223.66;5051718;28;20025;-50
2021/12/08 05:21:43;;;;;;;6.22;2.72;;;;;;;7.67;85.05;97225.56;5051589;28;20510;-50
2021/12/08 05:24:14;;;;;;;8.38;3.22;;;;;;;7.64;84.94;97208.50;5051742;28;20075;-50
2021/12/08 05:26:48;;;;;;;7.25;2.90;;;;;;;7.63;84.32;97203.53;5033673;28;20514;-50
2021/12/08 05:29:23;;;;;;;2.25;1.35;;;;;;;7.73;84.87;97204.59;5051591;28;20083;-50
2021/12/08 05:31:50;;;;;;;6.25;2.58;;;;;;;7.70;85.05;97202.41;5033737;28;20384;-50
2021/12/08 05:34:17;;;;;;;4.80;2.22;;;;;;;7.70;84.51;97220.69;5051549;28;20029;-50
2021/12/08 05:36:43;;;;;;;12.80;4.60;;;;;;;7.79;84.74;97242.09;5051233;28;20037;-50
2021/12/08 05:39:14;;;;;;;9.90;3.13;;;;;;;7.91;85.40;97263.06;5053142;28;20175;-50
2021/12/08 05:41:41;;;;;;;13.90;2.72;;;;;;;7.90;84.94;97266.69;5037398;28;20044;-50
2021/12/08 05:44:09;;;;;;;8.68;2.83;;;;;;;7.88;85.00;97263.50;5055523;28;20372;-51
2021/12/08 05:46:42;;;;;;;9.60;3.78;;;;;;;7.94;85.14;97266.03;5037541;28;20060;-51
2021/12/08 05:49:09;;;;;;;15.32;5.15;;;;;;;7.90;84.92;97246.56;5055440;28;20025;-49
2021/12/08 05:51:35;;;;;;;11.18;3.92;;;;;;;7.82;84.52;97248.69;5055365;28;20399;-52
2021/12/08 05:54:08;;;;;;;428.95;336.50;;;;;;;7.75;84.64;97282.72;5055321;28;20021;-50
2021/12/08 05:56:33;;;;;;;16.50;8.90;;;;;;;7.76;84.93;97300.75;5055336;28;20487;-50
2021/12/08 05:59:02;;;;;;;32.50;19.63;;;;;;;7.79;85.23;97292.50;5055313;28;20039;-50
2021/12/08 06:01:39;;;;;;;12.25;8.48;;;;;;;7.89;85.23;97286.00;5055197;28;20017;-50
2021/12/08 06:04:07;;;;;;;5.70;2.40;;;;;;;8.08;85.60;97269.28;5055290;28;20064;-50
2021/12/08 06:06:34;;;;;;;5.30;1.65;;;;;;;7.97;84.79;97283.09;5055109;28;20049;-49
2021/12/08 06:08:59;;;;;;;5.95;2.00;;;;;;;7.74;85.02;97300.19;5055003;28;20032;-51
2021/12/08 06:11:28;;;;;;;8.20;5.25;;;;;;;7.87;85.64;97312.34;5054967;28;20033;-50
2021/12/08 06:13:59;;;;;;;6.43;1.75;;;;;;;7.96;85.41;97305.78;5037097;28;20490;-51
2021/12/08 06:16:26;;;;;;;7.63;1.95;;;;;;;8.01;85.74;97286.88;5054987;28;20065;-50
2021/12/08 06:18:52;;;;;;;4.22;1.25;;;;;;;8.27;85.61;97283.16;5054936;28;20067;-50
2021/12/08 06:21:23;;;;;;;7.45;2.10;;;;;;;8.15;84.28;97271.84;5055100;28;20059;-50
2021/12/08 06:23:49;;;;;;;6.38;2.50;;;;;;;7.93;84.69;97256.59;5036972;28;20025;-50
2021/12/08 06:26:19;;;;;;;7.30;1.63;;;;;;;7.77;84.61;97242.31;5036773;28;20079;-51
2021/12/08 06:28:44;;;;;;;4.97;1.30;;;;;;;7.72;84.55;97239.53;5054645;28;20032;-50
2021/12/08 06:31:13;;;;;;;6.07;1.15;;;;;;;7.58;84.16;97270.22;5054582;28;20029;-50
2021/12/08 06:33:39;;;;;;;5.78;0.90;;;;;;;7.35;84.40;97291.72;5036689;28;20025;-50
2021/12/08 06:36:15;;;;;;;5.30;1.00;;;;;;;7.20;84.96;97289.44;5054330;28;20028;-50
2021/12/08 06:38:43;;;;;;;6.80;1.38;;;;;;;7.02;83.91;97286.75;5054598;28;20035;-50
2021/12/08 06:41:13;;;;;;;1.80;0.50;;;;;;;6.83;84.59;97277.28;5054465;28;20025;-50
2021/12/08 06:43:54;;;;;;;5.00;0.63;;;;;;;6.66;84.58;97274.34;5054500;28;20064;-50
2021/12/08 06:46:21;;;;;;;3.72;0.63;;;;;;;6.57;84.85;97279.81;5054399;28;20487;-50
2021/12/08 06:48:53;;;;;;;5.07;0.90;;;;;;;6.48;84.13;97291.50;5036392;28;20021;-49
2021/12/08 06:51:33;;;;;;;6.88;1.02;;;;;;;6.52;85.20;97284.03;5035770;28;20639;-50
2021/12/08 06:54:06;;;;;;;6.70;1.10;;;;;;;6.59;84.99;97283.00;5036342;28;20087;-50
2021/12/08 06:56:40;;;;;;;3.25;0.65;;;;;;;6.55;85.08;97297.47;5052225;28;20037;-49
2021/12/08 06:59:09;;;;;;;23.75;15.88;;;;;;;6.53;85.34;97299.47;5054201;28;20498;-50
2021/12/08 07:01:57;;;;;;;3.65;2.47;;;;;;;6.39;84.43;97277.09;5054123;28;20028;-49
2021/12/08 07:05:10;;;;;;;13.95;5.30;;;;;;;6.62;85.75;97266.16;5054092;28;20029;-49
2021/12/08 07:07:38;;;;;;;6.18;2.40;;;;;;;6.93;85.55;97256.72;5054050;28;20072;-49
2021/12/08 07:10:11;;;;;;;13.32;3.65;;;;;;;6.85;85.83;97243.97;5053927;28;20025;-49
2021/12/08 07:12:44;;;;;;;8.55;3.03;;;;;;;6.70;84.61;97237.25;5054004;28;20061;-49
2021/12/08 07:15:20;;;;;;;12.20;2.53;;;;;;;6.42;84.27;97223.78;5035996;28;20029;-49
2021/12/08 07:17:49;;;;;;;;;;;;;;;6.44;86.00;97214.75;5054304;28;20025;-50
2021/12/08 07:20:52;;;;;;;80.15;40.10;;;;;;;6.32;84.30;97224.25;5053770;28;19909;-50
2021/12/08 07:23:25;;;;;;;15.82;3.83;;;;;;;6.03;84.68;97231.56;5050509;28;20037;-50
2021/12/08 07:25:53;;;;;;;7.00;2.22;;;;;;;5.93;84.40;97246.81;5053650;28;20114;-50
2021/12/08 07:28:20;;;;;;;6.45;2.50;;;;;;;5.67;84.72;97253.69;5053527;28;20021;-49
2021/12/08 07:30:51;;;;;;;5.60;1.67;;;;;;;5.64;84.72;97281.94;5053571;28;20035;-49
2021/12/08 07:33:18;;;;;;;6.30;1.90;;;;;;;5.69;85.50;97293.31;5053576;28;20106;-50
2021/12/08 07:35:48;;;;;;;5.90;2.00;;;;;;;5.59;84.75;97293.78;5035529;28;20136;-49
2021/12/08 07:38:19;;;;;;;6.95;2.40;;;;;;;5.44;84.74;97300.19;5053239;28;20044;-49
2021/12/08 07:41:17;;;;;;;7.90;3.75;;;;;;;5.39;84.88;97296.41;5053405;28;20075;-49
2021/12/08 07:43:50;;;;;;;9.23;3.10;;;;;;;5.37;85.13;97294.97;5050687;28;20414;-49
2021/12/08 07:46:20;;;;;;;10.55;4.63;;;;;;;5.37;85.13;97295.78;5053290;28;20513;-49
2021/12/08 07:48:59;;;;;;;5.63;2.85;;;;;;;5.49;85.56;97284.75;5035338;28;20108;-50
2021/12/08 07:51:37;;;;;;;5.43;1.83;;;;;;;5.55;85.37;97297.78;5053219;28;20059;-49
2021/12/08 07:54:05;;;;;;;5.03;1.50;;;;;;;5.52;84.96;97298.16;5053055;28;20411;-50
2021/12/08 07:56:32;;;;;;;7.45;1.98;;;;;;;5.44;85.25;97302.78;5035018;28;20021;-50
2021/12/08 07:59:02;;;;;;;3.78;1.50;;;;;;;5.38;85.21;97299.19;5053048;28;20055;-50
2021/12/08 08:01:35;;;;;;;4.30;1.80;;;;;;;5.35;84.59;97294.38;5052792;28;20026;-50
2021/12/08 08:04:06;;;;;;;11.00;2.10;;;;;;;5.42;85.65;97302.19;5052290;28;20060;-50
2021/12/08 08:06:36;;;;;;;5.00;1.75;;;;;;;5.45;85.19;97302.56;5052928;28;20108;-50
2021/12/08 08:09:06;;;;;;;11.25;2.10;;;;;;;5.50;85.80;97307.97;5034864;28;20439;-49
2021/12/08 08:11:41;;;;;;;8.82;2.25;;;;;;;5.42;84.77;97299.59;5052762;28;20025;-49
2021/12/08 08:14:07;;;;;;;7.40;2.30;;;;;;;5.39;85.16;97291.19;5052768;28;20060;-49
2021/12/08 08:16:36;;;;;;;6.32;1.60;;;;;;;5.35;85.15;97292.59;5034761;28;20056;-50
2021/12/08 08:19:10;;;;;;;7.88;2.08;;;;;;;5.26;85.25;97298.19;5052613;28;20055;-49
2021/12/08 08:21:44;;;;;;;9.23;2.00;;;;;;;5.14;85.02;97301.38;5052640;28;20028;-49
2021/12/08 08:24:19;;;;;;;4.28;1.00;;;;;;;5.04;85.38;97316.59;5109772;27;20396;-48
2021/12/08 08:26:49;;;;;;;9.68;1.67;;;;;;;4.97;85.20;97313.97;5109673;28;20093;-49
2021/12/08 08:29:16;;;;;;;4.40;1.80;;;;;;;5.02;85.88;97317.78;5109678;28;20044;-50
2021/12/08 08:31:59;;;;;;;3.72;1.50;;;;;;;5.02;85.51;97313.38;5109554;28;20099;-50
2021/12/08 08:34:30;;;;;;;3.95;1.40;;;;;;;5.02;85.29;97309.97;5108265;28;20028;-50
2021/12/08 08:36:56;;;;;;;6.28;1.52;;;;;;;5.01;85.47;97298.78;5109479;28;20032;-50
2021/12/08 08:39:29;;;;;;;2.63;1.40;;;;;;;5.03;85.74;97301.16;5109476;28;20108;-50
2021/12/08 08:41:59;;;;;;;4.30;1.33;;;;;;;5.04;85.42;97300.19;5109341;28;20039;-50
2021/12/08 08:44:40;;;;;;;5.70;1.20;;;;;;;5.04;85.57;97305.38;5108002;28;20035;-49
2021/12/08 08:47:23;;;;;;;5.63;1.30;;;;;;;5.07;85.76;97304.97;5109344;28;20485;-50
2021/12/08 08:49:50;;;;;;;9.05;1.52;;;;;;;5.11;85.98;97300.97;5109331;28;20032;-49
2021/12/08 08:52:29;;;;;;;4.80;1.40;;;;;;;5.09;85.96;97306.41;5109183;28;20081;-50
2021/12/08 08:54:59;;;;;;;3.03;1.17;;;;;;;5.08;85.82;97307.38;5109244;28;20044;-49
2021/12/08 08:57:34;;;;;;;4.45;1.95;;;;;;;5.07;86.02;97300.59;5109101;28;20019;-49
2021/12/08 09:00:25;;;;;;;4.47;1.30;;;;;;;5.11;86.03;97295.78;5109136;28;20059;-49
2021/12/08 09:02:54;;;;;;;5.68;1.92;;;;;;;5.16;85.83;97293.38;5108979;28;20282;-49
2021/12/08 09:05:28;;;;;;;7.60;2.92;;;;;;;5.22;85.83;97291.78;5108903;28;20016;-49
2021/12/08 09:07:57;;;;;;;4.38;2.05;;;;;;;5.31;85.85;97286.19;5108990;28;20034;-49
2021/12/08 09:10:40;;;;;;;5.38;1.35;;;;;;;5.38;85.69;97286.97;5108869;28;20020;-50
2021/12/08 09:13:28;;;;;;;4.72;1.70;;;;;;;5.40;85.33;97284.19;5108811;28;20400;-49
2021/12/08 09:16:02;;;;;;;8.43;2.15;;;;;;;5.44;85.55;97284.59;5107461;28;20497;-50
2021/12/08 09:18:44;;;;;;;6.35;2.75;;;;;;;5.53;85.13;97283.34;5108777;28;20031;-50
2021/12/08 09:21:18;;;;;;;9.85;3.00;;;;;;;5.56;84.70;97288.97;5108723;28;20016;-50
2021/12/08 09:23:45;;;;;;;78.15;56.05;;;;;;;5.64;84.84;97289.75;5108203;28;20047;-51
2021/12/08 09:26:14;;;;;;;509.90;358.38;;;;;;;5.65;85.48;97293.94;5108526;28;20094;-50
2021/12/08 09:28:45;;;;;;;37.30;25.33;;;;;;;5.59;84.46;97285.97;5108469;28;20024;-48
2021/12/08 09:31:26;;;;;;;8.18;4.13;;;;;;;5.62;84.87;97289.16;5108433;28;20035;-48
2021/12/08 09:34:07;;;;;;;6.93;3.17;;;;;;;5.57;84.45;97290.56;5104888;28;20039;-49
2021/12/08 09:36:46;;;;;;;4.05;2.45;;;;;;;5.59;85.03;97282.53;5094810;28;20100;-51
2021/12/08 09:39:22;;;;;;;6.28;2.10;;;;;;;5.58;84.01;97286.94;5094713;28;20020;-51
2021/12/08 09:42:07;;;;;;;4.70;1.85;;;;;;;5.86;83.90;97283.28;5094685;28;20027;-50
2021/12/08 09:44:41;;;;;;;5.05;1.95;;;;;;;6.12;84.73;97272.03;5094675;28;20024;-50
2021/12/08 09:47:07;;;;;;;7.07;2.53;;;;;;;6.27;82.92;97274.34;5093300;28;20048;-50
2021/12/08 09:49:34;;;;;;;4.25;1.40;;;;;;;6.51;81.50;97265.00;5094526;28;20113;-51
2021/12/08 09:52:05;;;;;;;9.95;2.88;;;;;;;6.72;78.91;97268.28;5094480;28;20028;-51
2021/12/08 09:54:32;;;;;;;6.65;1.60;;;;;;;6.75;80.08;97270.50;5094446;28;20020;-52
2021/12/08 09:57:01;;;;;;;3.17;1.05;;;;;;;6.56;79.89;97266.97;5094392;28;20024;-51
2021/12/08 09:59:28;;;;;;;5.13;1.45;;;;;;;6.32;79.73;97279.75;5094378;28;20031;-51
2021/12/08 10:01:56;;;;;;;4.85;1.42;;;;;;;6.17;80.01;97272.19;5094542;28;20028;-51
2021/12/08 10:04:22;;;;;;;4.50;1.38;;;;;;;6.10;80.71;97278.44;5109892;28;20039;-50
2021/12/08 10:06:52;;;;;;;4.65;1.35;;;;;;;6.04;80.31;97281.84;5092849;28;20390;-51
2021/12/08 10:09:20;;;;;;;4.72;1.40;;;;;;;6.03;80.84;97275.06;5094221;28;20016;-50
2021/12/08 10:11:46;;;;;;;2.95;1.45;;;;;;;6.03;80.63;97270.63;5094093;28;20028;-50
2021/12/08 10:14:13;;;;;;;8.13;1.77;;;;;;;6.11;80.32;97264.41;5094117;28;20442;-51
2021/12/08 10:16:39;;;;;;;4.18;1.10;;;;;;;6.14;80.09;97274.44;5092672;28;20107;-51
2021/12/08 10:19:06;;;;;;;3.60;1.20;;;;;;;6.21;79.68;97275.19;5092677;28;20031;-51
2021/12/08 10:21:40;;;;;;;1.55;0.77;;;;;;;6.27;80.27;97269.13;5093894;28;20051;-50
2021/12/08 10:24:21;;;;;;;2.55;1.00;;;;;;;6.27;78.74;97274.34;5093644;28;20075;-50
2021/12/08 10:26:49;;;;;;;3.15;1.13;;;;;;;6.43;77.87;97273.06;5092482;28;20024;-50
2021/12/08 10:29:15;;;;;;;4.28;1.23;;;;;;;6.57;77.04;97264.19;5094051;28;20027;-50
2021/12/08 10:31:47;;;;;;;2.45;1.05;;;;;;;6.62;76.68;97262.75;5092372;28;20024;-51
2021/12/08 10:36:57;;;;;;;5.03;1.10;;;;;;;6.71;75.85;97258.88;5093599;28;20529;-50
2021/12/08 10:39:36;;;;;;;7.38;3.35;;;;;;;6.70;76.29;97265.91;5092336;28;20031;-51
2021/12/08 10:42:14;;;;;;;4.38;1.27;;;;;;;6.78;75.95;97264.84;5093507;28;20032;-50
2021/12/08 10:45:03;;;;;;;3.63;1.55;;;;;;;6.86;76.25;97258.56;5093474;28;20485;-51
2021/12/08 10:47:47;;;;;;;2.55;1.30;;;;;;;6.91;76.34;97253.53;5092697;28;20051;-50
2021/12/08 10:54:30;;;;;;;4.38;1.80;;;;;;;6.80;77.62;97248.00;5018949;28;20063;-50
2021/12/08 10:57:45;;;;;;;6.30;1.73;;;;;;;6.85;77.76;97251.78;5030977;28;20034;-50
2021/12/08 11:00:31;;;;;;;5.57;1.70;;;;;;;6.91;77.67;97248.31;5093227;28;20393;-50
2021/12/08 11:03:02;;;;;;;5.55;1.67;;;;;;;6.91;76.99;97256.16;5093111;28;20028;-51
2021/12/08 11:05:47;;;;;;;3.90;1.60;;;;;;;6.88;77.23;97248.72;5091826;28;20032;-50
2021/12/08 11:08:24;;;;;;;4.55;2.00;;;;;;;6.83;77.84;97245.97;5091615;28;20055;-51
2021/12/08 11:11:20;;;;;;;3.97;1.88;;;;;;;6.80;77.55;97241.97;5091477;28;20040;-50
2021/12/08 11:14:28;;;;;;;4.88;1.58;;;;;;;6.79;77.70;97238.56;5092837;28;20093;-51
2021/12/08 11:17:30;;;;;;;3.97;1.90;;;;;;;6.82;78.56;97234.72;5092941;28;20039;-51
2021/12/08 11:20:31;;;;;;;4.70;1.80;;;;;;;7.02;78.56;97223.34;5093125;28;20035;-50
2021/12/08 11:23:14;;;;;;;3.83;1.98;;;;;;;6.95;76.50;97219.00;5092417;28;20079;-50
2021/12/08 11:25:53;;;;;;;5.13;2.03;;;;;;;6.69;75.88;97220.00;5092761;28;20059;-50
2021/12/08 11:28:51;;;;;;;4.65;2.40;;;;;;;6.65;77.14;97223.25;5091330;28;20036;-50
2021/12/08 11:31:23;;;;;;;4.15;2.10;;;;;;;6.71;76.94;97220.56;5092467;28;20577;-50
2021/12/08 11:34:03;;;;;;;6.00;2.13;;;;;;;6.72;78.12;97224.78;5092562;28;20397;-50
2021/12/08 11:36:46;;;;;;;4.70;2.10;;;;;;;6.64;78.08;97221.63;5091114;28;20036;-50
2021/12/08 11:39:32;;;;;;;5.20;1.83;;;;;;;6.58;78.30;97218.88;5092421;28;20031;-50
2021/12/08 11:45:16;;;;;;;7.30;2.67;;;;;;;6.18;78.96;97213.09;5089101;28;20051;-50
2021/12/08 11:47:44;;;;;;;6.15;2.30;;;;;;;6.09;79.63;97229.97;5092408;28;20028;-51
2021/12/08 11:50:13;;;;;;;5.95;2.38;;;;;;;6.02;79.55;97219.59;5092256;28;20028;-50
2021/12/08 11:52:39;;;;;;;4.75;2.10;;;;;;;6.09;80.42;97214.34;5092218;28;20023;-47
2021/12/08 11:55:09;;;;;;;8.50;2.20;;;;;;;6.25;80.42;97223.47;5092173;28;20098;-51
2021/12/08 11:57:39;;;;;;;6.72;2.75;;;;;;;6.17;79.63;97220.09;5091907;28;20024;-50
2021/12/08 12:00:16;;;;;;;4.43;2.28;;;;;;;6.15;80.42;97213.50;5092150;28;20024;-51
2021/12/08 12:02:43;;;;;;;5.15;1.77;;;;;;;6.11;79.90;97225.34;5092122;28;20032;-51
2021/12/08 12:05:23;;;;;;;11.07;2.55;;;;;;;5.99;81.41;97214.78;5090748;28;20401;-50
2021/12/08 12:07:50;;;;;;;8.23;3.22;;;;;;;5.92;80.47;97219.19;5092095;28;20035;-50
2021/12/08 12:10:19;;;;;;;5.45;2.55;;;;;;;5.82;80.96;97219.63;5092019;28;20370;-51
2021/12/08 12:12:45;;;;;;;4.32;2.70;;;;;;;5.71;80.71;97218.44;5090664;28;20039;-51
2021/12/08 12:15:15;;;;;;;5.15;2.60;;;;;;;5.76;81.75;97218.63;5091917;28;20024;-51
2021/12/08 12:17:42;;;;;;;9.05;2.88;;;;;;;5.85;81.36;97223.63;5090550;28;20119;-50
2021/12/08 12:20:25;;;;;;;13.20;2.97;;;;;;;6.03;82.25;97221.16;5090536;28;20050;-51
2021/12/08 12:23:23;;;;;;;16.55;3.85;;;;;;;6.25;82.03;97228.69;5091451;28;20072;-51
2021/12/08 12:26:12;;;;;;;5.25;2.70;;;;;;;6.38;82.35;97221.59;5091878;28;20107;-51
2021/12/08 12:28:46;;;;;;;7.05;3.17;;;;;;;6.40;82.53;97226.59;5091890;28;20032;-51
2021/12/08 12:31:37;;;;;;;5.40;3.23;;;;;;;6.39;82.34;97220.56;5091891;28;20028;-50
2021/12/08 12:34:22;;;;;;;9.18;3.35;;;;;;;6.53;82.67;97212.69;5091791;28;20259;-51
2021/12/08 12:36:49;;;;;;;13.95;3.38;;;;;;;6.77;82.49;97217.13;5091831;28;20036;-50
2021/12/08 12:39:24;;;;;;;11.10;3.22;;;;;;;6.88;82.32;97207.84;5091795;28;20397;-50
2021/12/08 12:42:18;;;;;;;15.38;5.38;;;;;;;7.09;82.07;97213.66;5091784;28;20085;-50
2021/12/08 12:45:07;;;;;;;16.73;4.25;;;;;;;7.19;82.41;97213.97;5089422;28;20444;-50
2021/12/08 12:47:34;;;;;;;8.20;3.95;;;;;;;7.67;82.87;97215.13;5090354;28;20409;-51